Southworth, WA (98386)

1:38 AM PST on December 05, 2016 (GMT -0800)
Vashon Heights | | Change Station
Active Advisory: Winter Weather Advisory

Elev 341 ft 47.50 °N, 122.47 °W | Updated 1 minute ago

Overcast
Overcast
35.4 °F
Feels Like 33 °F
N
3.2
Wind Variable Wind from ESE

Today
High -- | Low -- °F
--% Chance of Precip.
Yesterday
High -- | Low -- °F
Precip. -- in
Pressure 30.16 in
Visibility 10.0 miles
Clouds Overcast 1900 ft
Windchill 33 °F
Dew Point 35 °F
Humidity 97%
Rainfall 0.00 in
Snow Depth Not available.
7:42 AM 4:19 PM
Waxing Crescent, 30% visible
METAR KBFI 050853Z 15009KT 10SM OVC019 03/01 A3016 RMK AO2 SLP212 T00280006 50005 $
Pressure 30.16 in
Visibility 10.0 miles
Clouds Overcast 1900 ft
Windchill 33 °F
Dew Point 35 °F
Humidity 97%
Rainfall 0.00 in
Snow Depth Not available.
7:42 AM 4:19 PM
Waxing Crescent, 30% visible
METAR KBFI 050853Z 15009KT 10SM OVC019 03/01 A3016 RMK AO2 SLP212 T00280006 50005 $

10-Day Weather Forecast

Almanac

Astronomy

Dec. 05, 2016 Rise Set
Actual Time
Civil Twilight
Nautical Twilight
Astronomical Twilight
Moon
Length of Visible Light
Length of Day
Tomorrow will be .
, % of the Moon is Illuminated

Today's Extremes

State Highs State Lows

Community

WunderPhotos

Upload Photos

1,955,775 photos uploaded!

WunderBlog® & News

Nearby

Air Quality

  Air Quality AQ Index Pollutant
Not available.

Snow Depth

Station Depth Elevation

Earthquake Activity

City Distance Mag. Time & Date
Minimum magnitude displayed is 2.5.

Coastal Water Temperatures

Place Temperature

Stations

Nearby Weather Stations

Station Location Temp. Windchill Dew Point Humidity Wind Precip. Elev Updated Type
                   

Watches & Warnings

Winter Weather Advisory
Issued: 9:34 PM PST Dec. 4, 2016 – National Weather Service

... Winter Weather Advisory remains in effect from 4 am to noon PST
Monday...

* timing... Monday morning between 4 am and noon.

* Snow amounts... up to two inches of snow above 500 feet. Areas
around Hood Canal could receive up to three inches. Accumulation
less than one inch below 500 feet.

* Snow levels... mainly near 500 feet.

* Impacts... hazardous driving conditions are possible during the
morning commute on Monday mainly on the higher hills.

Precautionary/preparedness actions...

A Winter Weather Advisory for snow means that periods of snow could
cause travel difficulties. Use caution while driving.